sensor_id;sensor_type;location;lat;lon;timestamp;temperature;humidity
15160;DHT22;7680;48.800;9.680;2023-02-04T00:00:43;6.80;99.90
15160;DHT22;7680;48.800;9.680;2023-02-04T00:03:18;6.80;99.90
15160;DHT22;7680;48.800;9.680;2023-02-04T00:05:51;6.80;99.90
15160;DHT22;7680;48.800;9.680;2023-02-04T00:08:24;6.80;99.90
15160;DHT22;7680;48.800;9.680;2023-02-04T00:10:57;6.80;99.90
15160;DHT22;7680;48.800;9.680;2023-02-04T00:13:30;6.90;99.90
15160;DHT22;7680;48.800;9.680;2023-02-04T00:16:04;6.90;99.90
15160;DHT22;7680;48.800;9.680;2023-02-04T00:18:38;6.90;99.90
15160;DHT22;7680;48.800;9.680;2023-02-04T00:21:12;6.80;99.90
15160;DHT22;7680;48.800;9.680;2023-02-04T00:23:45;6.80;99.90
15160;DHT22;7680;48.800;9.680;2023-02-04T00:26:18;6.80;99.90
15160;DHT22;7680;48.800;9.680;2023-02-04T00:28:51;6.80;99.90
15160;DHT22;7680;48.800;9.680;2023-02-04T00:31:24;6.80;99.90
15160;DHT22;7680;48.800;9.680;2023-02-04T00:33:58;6.80;99.90
15160;DHT22;7680;48.800;9.680;2023-02-04T00:36:32;6.80;99.90
15160;DHT22;7680;48.800;9.680;2023-02-04T00:39:05;6.80;99.90
15160;DHT22;7680;48.800;9.680;2023-02-04T00:41:38;6.80;99.90
15160;DHT22;7680;48.800;9.680;2023-02-04T00:44:11;6.90;99.90
15160;DHT22;7680;48.800;9.680;2023-02-04T00:46:45;6.90;99.90
15160;DHT22;7680;48.800;9.680;2023-02-04T00:49:20;7.00;99.90
15160;DHT22;7680;48.800;9.680;2023-02-04T00:51:53;7.00;99.90
15160;DHT22;7680;48.800;9.680;2023-02-04T00:54:26;6.90;99.90
15160;DHT22;7680;48.800;9.680;2023-02-04T00:57:00;6.90;99.90
15160;DHT22;7680;48.800;9.680;2023-02-04T00:59:33;6.90;99.90
15160;DHT22;7680;48.800;9.680;2023-02-04T01:02:06;7.00;99.90
15160;DHT22;7680;48.800;9.680;2023-02-04T01:04:40;6.90;99.90
15160;DHT22;7680;48.800;9.680;2023-02-04T01:07:13;6.90;99.90
15160;DHT22;7680;48.800;9.680;2023-02-04T01:09:46;6.90;99.90
15160;DHT22;7680;48.800;9.680;2023-02-04T01:12:19;6.90;99.90
15160;DHT22;7680;48.800;9.680;2023-02-04T01:14:53;7.00;99.90
15160;DHT22;7680;48.800;9.680;2023-02-04T01:17:27;6.90;99.90
15160;DHT22;7680;48.800;9.680;2023-02-04T01:20:01;6.80;99.90
15160;DHT22;7680;48.800;9.680;2023-02-04T01:22:34;6.80;99.90
15160;DHT22;7680;48.800;9.680;2023-02-04T01:25:07;6.80;99.90
15160;DHT22;7680;48.800;9.680;2023-02-04T01:27:40;6.70;99.90
15160;DHT22;7680;48.800;9.680;2023-02-04T01:30:14;6.80;99.90
15160;DHT22;7680;48.800;9.680;2023-02-04T01:32:47;6.80;99.90
15160;DHT22;7680;48.800;9.680;2023-02-04T01:35:22;6.80;99.90
15160;DHT22;7680;48.800;9.680;2023-02-04T01:37:55;6.80;99.90
15160;DHT22;7680;48.800;9.680;2023-02-04T01:40:28;6.70;99.90
15160;DHT22;7680;48.800;9.680;2023-02-04T01:43:02;6.70;99.90
15160;DHT22;7680;48.800;9.680;2023-02-04T01:45:36;6.70;99.90
15160;DHT22;7680;48.800;9.680;2023-02-04T01:48:09;6.70;99.90
15160;DHT22;7680;48.800;9.680;2023-02-04T01:50:45;6.60;99.90
15160;DHT22;7680;48.800;9.680;2023-02-04T01:53:20;6.70;99.90
15160;DHT22;7680;48.800;9.680;2023-02-04T01:55:54;6.60;99.90
15160;DHT22;7680;48.800;9.680;2023-02-04T01:58:29;6.60;99.90
15160;DHT22;7680;48.800;9.680;2023-02-04T02:01:08;6.70;99.90
15160;DHT22;7680;48.800;9.680;2023-02-04T02:03:43;6.60;99.90
15160;DHT22;7680;48.800;9.680;2023-02-04T02:06:17;6.50;99.90
15160;DHT22;7680;48.800;9.680;2023-02-04T02:08:50;6.60;99.90
15160;DHT22;7680;48.800;9.680;2023-02-04T02:11:24;6.60;99.90
15160;DHT22;7680;48.800;9.680;2023-02-04T02:13:57;6.50;99.90
15160;DHT22;7680;48.800;9.680;2023-02-04T02:16:30;6.40;99.90
15160;DHT22;7680;48.800;9.680;2023-02-04T02:19:05;6.40;99.90
15160;DHT22;7680;48.800;9.680;2023-02-04T02:21:44;6.40;99.90
15160;DHT22;7680;48.800;9.680;2023-02-04T02:24:28;6.40;99.90
15160;DHT22;7680;48.800;9.680;2023-02-04T02:27:04;6.40;99.90
15160;DHT22;7680;48.800;9.680;2023-02-04T02:29:41;6.40;99.90
15160;DHT22;7680;48.800;9.680;2023-02-04T02:32:14;6.40;99.90
15160;DHT22;7680;48.800;9.680;2023-02-04T02:34:47;6.40;99.90
15160;DHT22;7680;48.800;9.680;2023-02-04T02:37:21;6.40;99.90
15160;DHT22;7680;48.800;9.680;2023-02-04T02:39:55;6.40;99.90
15160;DHT22;7680;48.800;9.680;2023-02-04T02:42:29;6.30;99.90
15160;DHT22;7680;48.800;9.680;2023-02-04T02:45:06;6.30;99.90
15160;DHT22;7680;48.800;9.680;2023-02-04T02:47:43;6.40;99.90
15160;DHT22;7680;48.800;9.680;2023-02-04T02:50:18;6.40;99.90
15160;DHT22;7680;48.800;9.680;2023-02-04T02:52:52;6.30;99.90
15160;DHT22;7680;48.800;9.680;2023-02-04T02:55:27;6.30;99.90
15160;DHT22;7680;48.800;9.680;2023-02-04T02:58:00;6.30;99.90
15160;DHT22;7680;48.800;9.680;2023-02-04T03:00:33;6.30;99.90
15160;DHT22;7680;48.800;9.680;2023-02-04T03:03:09;6.30;99.90
15160;DHT22;7680;48.800;9.680;2023-02-04T03:05:49;6.30;99.90
15160;DHT22;7680;48.800;9.680;2023-02-04T03:08:23;6.30;99.90
15160;DHT22;7680;48.800;9.680;2023-02-04T03:10:58;6.30;99.90
15160;DHT22;7680;48.800;9.680;2023-02-04T03:13:31;6.30;99.90
15160;DHT22;7680;48.800;9.680;2023-02-04T03:16:06;6.30;99.90
15160;DHT22;7680;48.800;9.680;2023-02-04T03:18:40;6.20;99.90
15160;DHT22;7680;48.800;9.680;2023-02-04T03:21:13;6.30;99.90
15160;DHT22;7680;48.800;9.680;2023-02-04T03:23:46;6.30;99.90
15160;DHT22;7680;48.800;9.680;2023-02-04T03:26:21;6.20;99.90
15160;DHT22;7680;48.800;9.680;2023-02-04T03:28:54;6.20;99.90
15160;DHT22;7680;48.800;9.680;2023-02-04T03:31:27;6.20;99.90
15160;DHT22;7680;48.800;9.680;2023-02-04T03:34:00;6.20;99.90
15160;DHT22;7680;48.800;9.680;2023-02-04T03:36:33;6.20;99.90
15160;DHT22;7680;48.800;9.680;2023-02-04T03:39:07;6.20;99.90
15160;DHT22;7680;48.800;9.680;2023-02-04T03:41:41;6.20;99.90
15160;DHT22;7680;48.800;9.680;2023-02-04T03:44:14;6.20;99.90
15160;DHT22;7680;48.800;9.680;2023-02-04T03:46:47;6.20;99.90
15160;DHT22;7680;48.800;9.680;2023-02-04T03:49:20;6.20;99.90
15160;DHT22;7680;48.800;9.680;2023-02-04T03:51:53;6.20;99.90
15160;DHT22;7680;48.800;9.680;2023-02-04T03:54:27;6.20;99.90
15160;DHT22;7680;48.800;9.680;2023-02-04T03:57:01;6.10;99.90
15160;DHT22;7680;48.800;9.680;2023-02-04T03:59:34;6.10;99.90
15160;DHT22;7680;48.800;9.680;2023-02-04T04:02:07;6.10;99.90
15160;DHT22;7680;48.800;9.680;2023-02-04T04:04:40;6.10;99.90
15160;DHT22;7680;48.800;9.680;2023-02-04T04:07:13;6.10;99.90
15160;DHT22;7680;48.800;9.680;2023-02-04T04:09:46;6.00;99.90
15160;DHT22;7680;48.800;9.680;2023-02-04T04:12:21;6.00;99.90
15160;DHT22;7680;48.800;9.680;2023-02-04T04:14:54;5.90;99.90
15160;DHT22;7680;48.800;9.680;2023-02-04T04:17:27;5.90;99.90
15160;DHT22;7680;48.800;9.680;2023-02-04T04:20:00;5.90;99.90
15160;DHT22;7680;48.800;9.680;2023-02-04T04:22:33;5.90;99.90
15160;DHT22;7680;48.800;9.680;2023-02-04T04:25:07;5.90;99.90
15160;DHT22;7680;48.800;9.680;2023-02-04T04:27:42;5.80;99.90
15160;DHT22;7680;48.800;9.680;2023-02-04T04:30:15;5.80;99.90
15160;DHT22;7680;48.800;9.680;2023-02-04T04:32:48;5.70;99.90
15160;DHT22;7680;48.800;9.680;2023-02-04T04:35:21;5.70;99.90
15160;DHT22;7680;48.800;9.680;2023-02-04T04:37:55;5.70;99.90
15160;DHT22;7680;48.800;9.680;2023-02-04T04:40:28;5.60;99.90
15160;DHT22;7680;48.800;9.680;2023-02-04T04:43:03;5.60;99.90
15160;DHT22;7680;48.800;9.680;2023-02-04T04:45:36;5.50;99.90
15160;DHT22;7680;48.800;9.680;2023-02-04T04:48:09;5.50;99.90
15160;DHT22;7680;48.800;9.680;2023-02-04T04:50:43;5.50;99.90
15160;DHT22;7680;48.800;9.680;2023-02-04T04:53:16;5.40;99.90
15160;DHT22;7680;48.800;9.680;2023-02-04T04:55:49;5.30;99.90
15160;DHT22;7680;48.800;9.680;2023-02-04T04:58:23;5.30;99.90
15160;DHT22;7680;48.800;9.680;2023-02-04T05:00:56;5.20;99.90
15160;DHT22;7680;48.800;9.680;2023-02-04T05:03:29;5.20;99.90
15160;DHT22;7680;48.800;9.680;2023-02-04T05:06:03;5.10;99.90
15160;DHT22;7680;48.800;9.680;2023-02-04T05:08:36;5.00;99.90
15160;DHT22;7680;48.800;9.680;2023-02-04T05:11:10;5.00;99.90
15160;DHT22;7680;48.800;9.680;2023-02-04T05:13:45;5.00;99.90
15160;DHT22;7680;48.800;9.680;2023-02-04T05:16:18;4.90;99.90
15160;DHT22;7680;48.800;9.680;2023-02-04T05:18:51;4.90;99.90
15160;DHT22;7680;48.800;9.680;2023-02-04T05:21:24;4.80;99.90
15160;DHT22;7680;48.800;9.680;2023-02-04T05:23:57;4.80;99.90
15160;DHT22;7680;48.800;9.680;2023-02-04T05:26:30;4.80;99.90
15160;DHT22;7680;48.800;9.680;2023-02-04T05:29:05;4.80;99.90
15160;DHT22;7680;48.800;9.680;2023-02-04T05:31:40;4.80;99.90
15160;DHT22;7680;48.800;9.680;2023-02-04T05:34:13;4.70;99.90
15160;DHT22;7680;48.800;9.680;2023-02-04T05:36:46;4.60;99.90
15160;DHT22;7680;48.800;9.680;2023-02-04T05:39:19;4.60;99.90
15160;DHT22;7680;48.800;9.680;2023-02-04T05:41:52;4.60;99.90
15160;DHT22;7680;48.800;9.680;2023-02-04T05:44:26;4.50;99.90
15160;DHT22;7680;48.800;9.680;2023-02-04T05:47:00;4.50;99.90
15160;DHT22;7680;48.800;9.680;2023-02-04T05:49:33;4.40;99.90
15160;DHT22;7680;48.800;9.680;2023-02-04T05:52:06;4.40;99.90
15160;DHT22;7680;48.800;9.680;2023-02-04T05:54:39;4.40;99.90
15160;DHT22;7680;48.800;9.680;2023-02-04T05:57:12;4.30;99.90
15160;DHT22;7680;48.800;9.680;2023-02-04T05:59:47;4.30;99.90
15160;DHT22;7680;48.800;9.680;2023-02-04T06:02:20;4.30;99.90
15160;DHT22;7680;48.800;9.680;2023-02-04T06:04:53;4.30;99.90
15160;DHT22;7680;48.800;9.680;2023-02-04T06:07:26;4.40;99.90
15160;DHT22;7680;48.800;9.680;2023-02-04T06:09:59;4.40;99.90
15160;DHT22;7680;48.800;9.680;2023-02-04T06:12:32;4.40;99.90
15160;DHT22;7680;48.800;9.680;2023-02-04T06:15:07;4.30;99.90
15160;DHT22;7680;48.800;9.680;2023-02-04T06:17:41;4.30;99.90
15160;DHT22;7680;48.800;9.680;2023-02-04T06:20:14;4.20;99.90
15160;DHT22;7680;48.800;9.680;2023-02-04T06:22:47;4.20;99.90
15160;DHT22;7680;48.800;9.680;2023-02-04T06:25:22;4.10;99.90
15160;DHT22;7680;48.800;9.680;2023-02-04T06:27:56;4.10;99.90
15160;DHT22;7680;48.800;9.680;2023-02-04T06:30:30;4.00;99.90
15160;DHT22;7680;48.800;9.680;2023-02-04T06:33:04;3.90;99.90
15160;DHT22;7680;48.800;9.680;2023-02-04T06:35:37;3.90;99.90
15160;DHT22;7680;48.800;9.680;2023-02-04T06:38:10;3.80;99.90
15160;DHT22;7680;48.800;9.680;2023-02-04T06:40:43;3.90;99.90
15160;DHT22;7680;48.800;9.680;2023-02-04T06:43:19;3.90;99.90
15160;DHT22;7680;48.800;9.680;2023-02-04T06:45:55;3.80;99.90
15160;DHT22;7680;48.800;9.680;2023-02-04T06:48:29;3.80;99.90
15160;DHT22;7680;48.800;9.680;2023-02-04T06:51:02;3.80;99.90
15160;DHT22;7680;48.800;9.680;2023-02-04T06:53:35;3.80;99.90
15160;DHT22;7680;48.800;9.680;2023-02-04T06:56:08;3.80;99.90
15160;DHT22;7680;48.800;9.680;2023-02-04T06:58:41;3.80;99.90
15160;DHT22;7680;48.800;9.680;2023-02-04T07:01:15;3.70;99.90
15160;DHT22;7680;48.800;9.680;2023-02-04T07:03:49;3.70;99.90
15160;DHT22;7680;48.800;9.680;2023-02-04T07:06:22;3.70;99.90
15160;DHT22;7680;48.800;9.680;2023-02-04T07:08:55;3.70;99.90
15160;DHT22;7680;48.800;9.680;2023-02-04T07:11:28;3.70;99.90
15160;DHT22;7680;48.800;9.680;2023-02-04T07:14:01;3.80;99.90
15160;DHT22;7680;48.800;9.680;2023-02-04T07:16:36;3.80;99.90
15160;DHT22;7680;48.800;9.680;2023-02-04T07:19:09;3.80;99.90
15160;DHT22;7680;48.800;9.680;2023-02-04T07:21:42;3.90;99.90
15160;DHT22;7680;48.800;9.680;2023-02-04T07:24:15;3.80;99.90
15160;DHT22;7680;48.800;9.680;2023-02-04T07:26:48;3.80;99.90
15160;DHT22;7680;48.800;9.680;2023-02-04T07:29:21;3.80;99.90
15160;DHT22;7680;48.800;9.680;2023-02-04T07:31:58;3.90;99.90
15160;DHT22;7680;48.800;9.680;2023-02-04T07:34:31;3.90;99.90
15160;DHT22;7680;48.800;9.680;2023-02-04T07:37:04;4.00;99.90
15160;DHT22;7680;48.800;9.680;2023-02-04T07:39:37;3.90;99.90
15160;DHT22;7680;48.800;9.680;2023-02-04T07:42:11;4.00;99.90
15160;DHT22;7680;48.800;9.680;2023-02-04T07:44:44;3.90;99.90
15160;DHT22;7680;48.800;9.680;2023-02-04T07:47:19;4.00;99.90
15160;DHT22;7680;48.800;9.680;2023-02-04T07:49:52;4.00;99.90
15160;DHT22;7680;48.800;9.680;2023-02-04T07:52:27;4.10;99.90
15160;DHT22;7680;48.800;9.680;2023-02-04T07:55:00;4.00;99.90
15160;DHT22;7680;48.800;9.680;2023-02-04T07:57:33;4.00;99.90
15160;DHT22;7680;48.800;9.680;2023-02-04T08:00:08;4.00;99.90
15160;DHT22;7680;48.800;9.680;2023-02-04T08:02:45;4.00;99.90
15160;DHT22;7680;48.800;9.680;2023-02-04T08:05:18;4.00;99.90
15160;DHT22;7680;48.800;9.680;2023-02-04T08:07:51;4.00;99.90
15160;DHT22;7680;48.800;9.680;2023-02-04T08:10:24;4.10;99.90
15160;DHT22;7680;48.800;9.680;2023-02-04T08:12:57;4.10;99.90
15160;DHT22;7680;48.800;9.680;2023-02-04T08:15:30;4.10;99.90
15160;DHT22;7680;48.800;9.680;2023-02-04T08:18:04;4.20;99.90
15160;DHT22;7680;48.800;9.680;2023-02-04T08:20:38;4.30;99.90
15160;DHT22;7680;48.800;9.680;2023-02-04T08:23:11;4.30;99.90
15160;DHT22;7680;48.800;9.680;2023-02-04T08:25:44;4.40;99.90
15160;DHT22;7680;48.800;9.680;2023-02-04T08:28:17;4.40;99.90
15160;DHT22;7680;48.800;9.680;2023-02-04T08:30:50;4.40;99.90
15160;DHT22;7680;48.800;9.680;2023-02-04T08:33:25;4.40;99.90
15160;DHT22;7680;48.800;9.680;2023-02-04T08:35:58;4.50;99.90
15160;DHT22;7680;48.800;9.680;2023-02-04T08:38:31;4.50;99.90
15160;DHT22;7680;48.800;9.680;2023-02-04T08:41:04;4.50;99.90
15160;DHT22;7680;48.800;9.680;2023-02-04T08:43:37;4.60;99.90
15160;DHT22;7680;48.800;9.680;2023-02-04T08:46:10;4.70;99.90
15160;DHT22;7680;48.800;9.680;2023-02-04T08:48:45;4.70;99.90
15160;DHT22;7680;48.800;9.680;2023-02-04T08:51:18;4.80;99.90
15160;DHT22;7680;48.800;9.680;2023-02-04T08:53:51;4.80;99.90
15160;DHT22;7680;48.800;9.680;2023-02-04T08:56:24;4.90;99.90
15160;DHT22;7680;48.800;9.680;2023-02-04T08:58:57;4.90;99.90
15160;DHT22;7680;48.800;9.680;2023-02-04T09:01:30;5.00;99.90
15160;DHT22;7680;48.800;9.680;2023-02-04T09:04:04;5.00;99.90
15160;DHT22;7680;48.800;9.680;2023-02-04T09:06:38;5.00;99.90
15160;DHT22;7680;48.800;9.680;2023-02-04T09:09:11;5.00;99.90
15160;DHT22;7680;48.800;9.680;2023-02-04T09:11:44;5.10;99.90
15160;DHT22;7680;48.800;9.680;2023-02-04T09:14:17;5.10;99.90
15160;DHT22;7680;48.800;9.680;2023-02-04T09:16:51;5.10;99.90
15160;DHT22;7680;48.800;9.680;2023-02-04T09:19:25;5.10;99.90
15160;DHT22;7680;48.800;9.680;2023-02-04T09:21:58;5.10;99.90
15160;DHT22;7680;48.800;9.680;2023-02-04T09:24:31;5.20;99.90
15160;DHT22;7680;48.800;9.680;2023-02-04T09:27:04;5.20;99.90
15160;DHT22;7680;48.800;9.680;2023-02-04T09:29:38;5.20;99.90
15160;DHT22;7680;48.800;9.680;2023-02-04T09:32:11;5.20;99.90
15160;DHT22;7680;48.800;9.680;2023-02-04T09:34:45;5.30;99.90
15160;DHT22;7680;48.800;9.680;2023-02-04T09:37:18;5.30;99.90
15160;DHT22;7680;48.800;9.680;2023-02-04T09:39:51;5.30;99.90
15160;DHT22;7680;48.800;9.680;2023-02-04T09:42:25;5.30;99.90
15160;DHT22;7680;48.800;9.680;2023-02-04T09:44:58;5.30;99.90
15160;DHT22;7680;48.800;9.680;2023-02-04T09:47:33;5.30;99.90
15160;DHT22;7680;48.800;9.680;2023-02-04T09:50:13;5.40;99.90
15160;DHT22;7680;48.800;9.680;2023-02-04T09:52:48;5.40;99.90
15160;DHT22;7680;48.800;9.680;2023-02-04T09:55:29;5.40;99.90
15160;DHT22;7680;48.800;9.680;2023-02-04T09:58:07;5.50;99.90
15160;DHT22;7680;48.800;9.680;2023-02-04T10:00:44;5.50;99.90
15160;DHT22;7680;48.800;9.680;2023-02-04T10:03:19;5.60;99.90
15160;DHT22;7680;48.800;9.680;2023-02-04T10:05:55;5.60;99.90
15160;DHT22;7680;48.800;9.680;2023-02-04T10:08:30;5.50;99.90
15160;DHT22;7680;48.800;9.680;2023-02-04T10:11:05;5.50;99.90
15160;DHT22;7680;48.800;9.680;2023-02-04T10:13:42;5.50;99.90
15160;DHT22;7680;48.800;9.680;2023-02-04T10:16:19;5.50;99.90
15160;DHT22;7680;48.800;9.680;2023-02-04T10:18:55;5.60;99.90
15160;DHT22;7680;48.800;9.680;2023-02-04T10:21:31;5.70;99.90
15160;DHT22;7680;48.800;9.680;2023-02-04T10:24:11;5.80;99.90
15160;DHT22;7680;48.800;9.680;2023-02-04T10:26:46;5.70;99.90
15160;DHT22;7680;48.800;9.680;2023-02-04T10:29:21;5.80;99.90
15160;DHT22;7680;48.800;9.680;2023-02-04T10:31:56;5.80;99.90
15160;DHT22;7680;48.800;9.680;2023-02-04T10:34:33;5.80;99.90
15160;DHT22;7680;48.800;9.680;2023-02-04T10:37:18;5.80;99.90
15160;DHT22;7680;48.800;9.680;2023-02-04T10:39:53;5.80;99.90
15160;DHT22;7680;48.800;9.680;2023-02-04T10:42:27;5.90;99.90
15160;DHT22;7680;48.800;9.680;2023-02-04T10:45:01;5.90;99.90
15160;DHT22;7680;48.800;9.680;2023-02-04T10:47:34;5.90;99.90
15160;DHT22;7680;48.800;9.680;2023-02-04T10:50:16;5.90;99.90
15160;DHT22;7680;48.800;9.680;2023-02-04T10:53:08;5.90;99.90
15160;DHT22;7680;48.800;9.680;2023-02-04T10:56:00;6.00;99.90
15160;DHT22;7680;48.800;9.680;2023-02-04T10:58:34;6.00;99.90
15160;DHT22;7680;48.800;9.680;2023-02-04T11:01:08;6.10;99.90
15160;DHT22;7680;48.800;9.680;2023-02-04T11:03:43;6.20;99.90
15160;DHT22;7680;48.800;9.680;2023-02-04T11:06:21;6.30;99.90
15160;DHT22;7680;48.800;9.680;2023-02-04T11:08:58;6.40;99.90
15160;DHT22;7680;48.800;9.680;2023-02-04T11:11:31;6.30;99.90
15160;DHT22;7680;48.800;9.680;2023-02-04T11:14:17;6.30;99.90
15160;DHT22;7680;48.800;9.680;2023-02-04T11:16:54;6.40;99.90
15160;DHT22;7680;48.800;9.680;2023-02-04T11:19:34;6.40;99.90
15160;DHT22;7680;48.800;9.680;2023-02-04T11:22:20;6.40;99.90
15160;DHT22;7680;48.800;9.680;2023-02-04T11:24:56;6.50;99.90
15160;DHT22;7680;48.800;9.680;2023-02-04T11:27:37;6.50;99.90
15160;DHT22;7680;48.800;9.680;2023-02-04T11:30:20;6.50;99.90
15160;DHT22;7680;48.800;9.680;2023-02-04T11:32:59;6.50;99.90
15160;DHT22;7680;48.800;9.680;2023-02-04T11:35:33;6.50;99.90
15160;DHT22;7680;48.800;9.680;2023-02-04T11:38:22;6.50;99.90
15160;DHT22;7680;48.800;9.680;2023-02-04T11:40:59;6.60;99.90
15160;DHT22;7680;48.800;9.680;2023-02-04T11:43:33;6.60;99.90
15160;DHT22;7680;48.800;9.680;2023-02-04T11:46:11;6.50;99.90
15160;DHT22;7680;48.800;9.680;2023-02-04T11:48:51;6.60;99.90
15160;DHT22;7680;48.800;9.680;2023-02-04T11:51:29;6.60;99.90
15160;DHT22;7680;48.800;9.680;2023-02-04T11:54:03;6.60;99.90
15160;DHT22;7680;48.800;9.680;2023-02-04T11:56:38;6.50;99.90
15160;DHT22;7680;48.800;9.680;2023-02-04T11:59:12;6.40;99.90
15160;DHT22;7680;48.800;9.680;2023-02-04T12:01:48;6.50;99.90
15160;DHT22;7680;48.800;9.680;2023-02-04T12:04:22;6.60;99.90
15160;DHT22;7680;48.800;9.680;2023-02-04T12:06:58;6.60;99.90
15160;DHT22;7680;48.800;9.680;2023-02-04T12:09:31;6.60;99.90
15160;DHT22;7680;48.800;9.680;2023-02-04T12:12:06;6.60;99.90
15160;DHT22;7680;48.800;9.680;2023-02-04T12:14:41;6.50;99.90
15160;DHT22;7680;48.800;9.680;2023-02-04T12:17:15;6.50;99.90
15160;DHT22;7680;48.800;9.680;2023-02-04T12:19:48;6.50;99.90
15160;DHT22;7680;48.800;9.680;2023-02-04T12:22:22;6.50;99.90
15160;DHT22;7680;48.800;9.680;2023-02-04T12:24:55;6.50;99.90
15160;DHT22;7680;48.800;9.680;2023-02-04T12:27:29;6.60;99.90
15160;DHT22;7680;48.800;9.680;2023-02-04T12:30:02;6.50;99.90
15160;DHT22;7680;48.800;9.680;2023-02-04T12:32:36;6.50;99.90
15160;DHT22;7680;48.800;9.680;2023-02-04T12:35:09;6.50;99.90
15160;DHT22;7680;48.800;9.680;2023-02-04T12:37:42;6.60;99.90
15160;DHT22;7680;48.800;9.680;2023-02-04T12:40:17;6.60;99.90
15160;DHT22;7680;48.800;9.680;2023-02-04T12:42:53;6.60;99.90
15160;DHT22;7680;48.800;9.680;2023-02-04T12:45:26;6.60;99.90
15160;DHT22;7680;48.800;9.680;2023-02-04T12:48:00;6.70;99.90
15160;DHT22;7680;48.800;9.680;2023-02-04T12:50:33;6.60;99.90
15160;DHT22;7680;48.800;9.680;2023-02-04T12:53:06;6.60;99.90
15160;DHT22;7680;48.800;9.680;2023-02-04T12:55:39;6.60;99.90
15160;DHT22;7680;48.800;9.680;2023-02-04T12:58:14;6.50;99.90
15160;DHT22;7680;48.800;9.680;2023-02-04T13:00:47;6.60;99.90
15160;DHT22;7680;48.800;9.680;2023-02-04T13:03:20;6.60;99.90
15160;DHT22;7680;48.800;9.680;2023-02-04T13:05:54;6.60;99.90
15160;DHT22;7680;48.800;9.680;2023-02-04T13:08:27;6.60;99.90
15160;DHT22;7680;48.800;9.680;2023-02-04T13:11:00;6.70;99.90
15160;DHT22;7680;48.800;9.680;2023-02-04T13:13:35;6.70;99.90
15160;DHT22;7680;48.800;9.680;2023-02-04T13:16:08;6.60;99.90
15160;DHT22;7680;48.800;9.680;2023-02-04T13:18:41;6.90;99.90
15160;DHT22;7680;48.800;9.680;2023-02-04T13:21:14;6.80;99.90
15160;DHT22;7680;48.800;9.680;2023-02-04T13:23:47;6.60;99.90
15160;DHT22;7680;48.800;9.680;2023-02-04T13:26:20;6.60;99.90
15160;DHT22;7680;48.800;9.680;2023-02-04T13:28:54;6.50;99.90
15160;DHT22;7680;48.800;9.680;2023-02-04T13:31:27;6.60;99.90
15160;DHT22;7680;48.800;9.680;2023-02-04T13:34:01;6.50;99.90
15160;DHT22;7680;48.800;9.680;2023-02-04T13:36:34;6.50;99.90
15160;DHT22;7680;48.800;9.680;2023-02-04T13:39:07;6.60;99.90
15160;DHT22;7680;48.800;9.680;2023-02-04T13:41:40;6.50;99.90
15160;DHT22;7680;48.800;9.680;2023-02-04T13:44:14;6.50;99.90
15160;DHT22;7680;48.800;9.680;2023-02-04T13:46:47;6.50;99.90
15160;DHT22;7680;48.800;9.680;2023-02-04T13:49:20;6.40;99.90
15160;DHT22;7680;48.800;9.680;2023-02-04T13:51:53;6.40;99.90
15160;DHT22;7680;48.800;9.680;2023-02-04T13:54:26;6.40;99.90
15160;DHT22;7680;48.800;9.680;2023-02-04T13:57:00;6.50;99.90
15160;DHT22;7680;48.800;9.680;2023-02-04T13:59:34;6.40;99.90
15160;DHT22;7680;48.800;9.680;2023-02-04T14:02:07;6.50;99.90
15160;DHT22;7680;48.800;9.680;2023-02-04T14:04:41;6.50;99.90
15160;DHT22;7680;48.800;9.680;2023-02-04T14:07:14;6.40;99.90
15160;DHT22;7680;48.800;9.680;2023-02-04T14:09:47;6.50;99.90
15160;DHT22;7680;48.800;9.680;2023-02-04T14:12:20;6.40;99.90
15160;DHT22;7680;48.800;9.680;2023-02-04T14:14:55;6.40;99.90
15160;DHT22;7680;48.800;9.680;2023-02-04T14:17:28;6.40;99.90
15160;DHT22;7680;48.800;9.680;2023-02-04T14:20:01;6.40;99.90
15160;DHT22;7680;48.800;9.680;2023-02-04T14:22:36;6.50;99.90
15160;DHT22;7680;48.800;9.680;2023-02-04T14:25:09;6.40;99.90
15160;DHT22;7680;48.800;9.680;2023-02-04T14:27:42;6.20;99.90
15160;DHT22;7680;48.800;9.680;2023-02-04T14:30:18;6.20;99.90
15160;DHT22;7680;48.800;9.680;2023-02-04T14:32:53;6.20;99.90
15160;DHT22;7680;48.800;9.680;2023-02-04T14:35:26;6.20;99.90
15160;DHT22;7680;48.800;9.680;2023-02-04T14:37:59;6.20;99.90
15160;DHT22;7680;48.800;9.680;2023-02-04T14:40:33;6.30;99.90
15160;DHT22;7680;48.800;9.680;2023-02-04T14:43:06;6.30;99.90
15160;DHT22;7680;48.800;9.680;2023-02-04T14:45:42;6.30;99.90
15160;DHT22;7680;48.800;9.680;2023-02-04T14:48:16;6.30;99.90
15160;DHT22;7680;48.800;9.680;2023-02-04T14:50:49;6.40;99.90
15160;DHT22;7680;48.800;9.680;2023-02-04T14:53:22;6.30;99.90
15160;DHT22;7680;48.800;9.680;2023-02-04T14:55:55;6.20;99.90
15160;DHT22;7680;48.800;9.680;2023-02-04T14:58:28;6.20;99.90
15160;DHT22;7680;48.800;9.680;2023-02-04T15:01:02;6.20;99.90
15160;DHT22;7680;48.800;9.680;2023-02-04T15:03:36;6.20;99.90
15160;DHT22;7680;48.800;9.680;2023-02-04T15:06:09;6.10;99.90
15160;DHT22;7680;48.800;9.680;2023-02-04T15:08:42;6.20;99.90
15160;DHT22;7680;48.800;9.680;2023-02-04T15:11:16;6.20;99.90
15160;DHT22;7680;48.800;9.680;2023-02-04T15:13:49;6.10;99.90
15160;DHT22;7680;48.800;9.680;2023-02-04T15:16:23;6.10;99.90
15160;DHT22;7680;48.800;9.680;2023-02-04T15:18:56;6.10;99.90
15160;DHT22;7680;48.800;9.680;2023-02-04T15:21:30;6.10;99.90
15160;DHT22;7680;48.800;9.680;2023-02-04T15:24:03;6.10;99.90
15160;DHT22;7680;48.800;9.680;2023-02-04T15:26:36;6.10;99.90
15160;DHT22;7680;48.800;9.680;2023-02-04T15:29:10;6.00;99.90
15160;DHT22;7680;48.800;9.680;2023-02-04T15:31:44;6.10;99.90
15160;DHT22;7680;48.800;9.680;2023-02-04T15:34:17;6.00;99.90
15160;DHT22;7680;48.800;9.680;2023-02-04T15:36:51;6.00;99.90
15160;DHT22;7680;48.800;9.680;2023-02-04T15:39:24;6.00;99.90
15160;DHT22;7680;48.800;9.680;2023-02-04T15:41:58;5.90;99.90
15160;DHT22;7680;48.800;9.680;2023-02-04T15:44:31;5.90;99.90
15160;DHT22;7680;48.800;9.680;2023-02-04T15:47:06;5.90;99.90
15160;DHT22;7680;48.800;9.680;2023-02-04T15:49:39;5.90;99.90
15160;DHT22;7680;48.800;9.680;2023-02-04T15:52:12;5.80;99.90
15160;DHT22;7680;48.800;9.680;2023-02-04T15:54:55;5.70;99.90
15160;DHT22;7680;48.800;9.680;2023-02-04T15:57:29;5.70;99.90
15160;DHT22;7680;48.800;9.680;2023-02-04T16:00:02;5.70;99.90
15160;DHT22;7680;48.800;9.680;2023-02-04T16:02:37;5.60;99.90
15160;DHT22;7680;48.800;9.680;2023-02-04T16:05:10;5.50;99.90
15160;DHT22;7680;48.800;9.680;2023-02-04T16:07:43;5.40;99.90
15160;DHT22;7680;48.800;9.680;2023-02-04T16:10:17;5.40;99.90
15160;DHT22;7680;48.800;9.680;2023-02-04T16:12:50;5.40;99.90
15160;DHT22;7680;48.800;9.680;2023-02-04T16:15:25;5.40;99.90
15160;DHT22;7680;48.800;9.680;2023-02-04T16:18:00;5.30;99.90
15160;DHT22;7680;48.800;9.680;2023-02-04T16:20:33;5.30;99.90
15160;DHT22;7680;48.800;9.680;2023-02-04T16:23:06;5.20;99.90
15160;DHT22;7680;48.800;9.680;2023-02-04T16:25:39;5.20;99.90
15160;DHT22;7680;48.800;9.680;2023-02-04T16:28:12;5.10;99.90
15160;DHT22;7680;48.800;9.680;2023-02-04T16:30:45;5.00;99.90
15160;DHT22;7680;48.800;9.680;2023-02-04T16:33:20;5.00;99.90
15160;DHT22;7680;48.800;9.680;2023-02-04T16:35:58;5.00;99.90
15160;DHT22;7680;48.800;9.680;2023-02-04T16:38:33;5.00;99.90
15160;DHT22;7680;48.800;9.680;2023-02-04T16:41:10;4.90;99.90
15160;DHT22;7680;48.800;9.680;2023-02-04T16:43:45;4.90;99.90
15160;DHT22;7680;48.800;9.680;2023-02-04T16:46:18;4.90;99.90